sensor_id;sensor_type;location;lat;lon;timestamp;pressure;altitude;pressure_sealevel;temperature;humidity
24302;BME280;12421;49.732;20.078;2023-04-20T00:02:01;96913.17;;;8.88;81.48
24302;BME280;12421;49.732;20.078;2023-04-20T00:12:05;96907.44;;;8.77;81.97
24302;BME280;12421;49.732;20.078;2023-04-20T00:22:08;96906.74;;;8.79;82.32
24302;BME280;12421;49.732;20.078;2023-04-20T00:32:11;96899.40;;;8.75;82.64
24302;BME280;12421;49.732;20.078;2023-04-20T00:42:15;96889.99;;;8.66;82.89
24302;BME280;12421;49.732;20.078;2023-04-20T00:52:20;96894.25;;;8.50;83.59
24302;BME280;12421;49.732;20.078;2023-04-20T01:02:23;96893.75;;;8.42;83.85
24302;BME280;12421;49.732;20.078;2023-04-20T01:12:27;96898.48;;;8.42;83.63
24302;BME280;12421;49.732;20.078;2023-04-20T01:22:30;96895.17;;;8.36;83.91
24302;BME280;12421;49.732;20.078;2023-04-20T01:32:34;96897.98;;;8.33;83.94
24302;BME280;12421;49.732;20.078;2023-04-20T01:42:38;96892.36;;;8.37;83.66
24302;BME280;12421;49.732;20.078;2023-04-20T01:52:41;96888.09;;;8.62;83.53
24302;BME280;12421;49.732;20.078;2023-04-20T02:02:44;96882.56;;;8.85;82.92
24302;BME280;12421;49.732;20.078;2023-04-20T02:12:48;96883.59;;;8.89;81.99
24302;BME280;12421;49.732;20.078;2023-04-20T02:22:52;96886.23;;;8.87;82.11
24302;BME280;12421;49.732;20.078;2023-04-20T02:32:55;96879.20;;;8.90;81.73
24302;BME280;12421;49.732;20.078;2023-04-20T02:42:58;96882.16;;;8.94;81.69
24302;BME280;12421;49.732;20.078;2023-04-20T02:53:03;96883.77;;;8.88;81.30
24302;BME280;12421;49.732;20.078;2023-04-20T03:03:09;96890.20;;;8.54;80.98
24302;BME280;12421;49.732;20.078;2023-04-20T03:13:13;96889.94;;;8.19;81.55
24302;BME280;12421;49.732;20.078;2023-04-20T03:23:30;96895.40;;;7.99;81.48
24302;BME280;12421;49.732;20.078;2023-04-20T03:33:34;96900.64;;;7.93;81.55
24302;BME280;12421;49.732;20.078;2023-04-20T03:43:38;96903.98;;;7.74;81.95
24302;BME280;12421;49.732;20.078;2023-04-20T03:53:44;96913.41;;;7.58;82.83
24302;BME280;12421;49.732;20.078;2023-04-20T04:03:48;96910.98;;;7.63;83.58
24302;BME280;12421;49.732;20.078;2023-04-20T04:13:53;96917.61;;;7.79;83.35
24302;BME280;12421;49.732;20.078;2023-04-20T04:23:57;96923.89;;;7.89;83.43
24302;BME280;12421;49.732;20.078;2023-04-20T04:34:13;96933.30;;;8.07;83.57
24302;BME280;12421;49.732;20.078;2023-04-20T04:44:23;96940.47;;;8.37;83.41
24302;BME280;12421;49.732;20.078;2023-04-20T04:54:28;96953.88;;;8.60;83.03
24302;BME280;12421;49.732;20.078;2023-04-20T05:04:31;96957.52;;;8.73;82.39
24302;BME280;12421;49.732;20.078;2023-04-20T05:14:35;96964.80;;;8.95;82.17
24302;BME280;12421;49.732;20.078;2023-04-20T05:24:38;96970.16;;;9.07;81.63
24302;BME280;12421;49.732;20.078;2023-04-20T05:34:41;96968.52;;;9.22;81.26
24302;BME280;12421;49.732;20.078;2023-04-20T05:44:45;96976.52;;;9.35;80.68
24302;BME280;12421;49.732;20.078;2023-04-20T05:54:48;96969.09;;;9.71;80.51
24302;BME280;12421;49.732;20.078;2023-04-20T06:04:52;96974.97;;;10.07;79.08
24302;BME280;12421;49.732;20.078;2023-04-20T06:14:58;96980.10;;;10.61;77.36
24302;BME280;12421;49.732;20.078;2023-04-20T06:25:02;96975.64;;;11.14;75.28
24302;BME280;12421;49.732;20.078;2023-04-20T06:35:06;96982.67;;;11.27;74.09
24302;BME280;12421;49.732;20.078;2023-04-20T06:45:10;96981.48;;;11.66;73.04
24302;BME280;12421;49.732;20.078;2023-04-20T06:55:14;96983.77;;;11.64;72.09
24302;BME280;12421;49.732;20.078;2023-04-20T07:05:35;96982.88;;;11.66;72.02
24302;BME280;12421;49.732;20.078;2023-04-20T07:15:38;96989.44;;;11.86;72.26
24302;BME280;12421;49.732;20.078;2023-04-20T07:25:42;96995.48;;;12.06;71.22
24302;BME280;12421;49.732;20.078;2023-04-20T07:35:45;96996.52;;;12.07;70.78
24302;BME280;12421;49.732;20.078;2023-04-20T07:45:48;97001.27;;;12.27;70.36
24302;BME280;12421;49.732;20.078;2023-04-20T07:55:52;97008.33;;;12.57;69.59
24302;BME280;12421;49.732;20.078;2023-04-20T08:05:55;97012.72;;;12.59;68.21
24302;BME280;12421;49.732;20.078;2023-04-20T08:15:58;97019.90;;;12.51;68.37
24302;BME280;12421;49.732;20.078;2023-04-20T08:26:03;97022.36;;;12.62;68.39
24302;BME280;12421;49.732;20.078;2023-04-20T08:36:06;97025.23;;;12.59;68.27
24302;BME280;12421;49.732;20.078;2023-04-20T08:46:09;97035.52;;;12.54;67.68
24302;BME280;12421;49.732;20.078;2023-04-20T08:56:12;97034.06;;;12.36;68.12
24302;BME280;12421;49.732;20.078;2023-04-20T09:06:16;97030.77;;;12.42;68.19
24302;BME280;12421;49.732;20.078;2023-04-20T09:16:20;97033.88;;;12.47;68.06
24302;BME280;12421;49.732;20.078;2023-04-20T09:26:23;97039.15;;;12.58;67.99
24302;BME280;12421;49.732;20.078;2023-04-20T09:36:43;97037.86;;;12.81;67.84
24302;BME280;12421;49.732;20.078;2023-04-20T09:46:52;97038.56;;;13.29;66.67
24302;BME280;12421;49.732;20.078;2023-04-20T09:56:57;97030.63;;;14.18;65.08
24302;BME280;12421;49.732;20.078;2023-04-20T10:07:01;97027.61;;;14.27;63.10
24302;BME280;12421;49.732;20.078;2023-04-20T10:17:08;97029.58;;;14.02;62.80
24302;BME280;12421;49.732;20.078;2023-04-20T10:37:55;97024.52;;;13.52;63.71
24302;BME280;12421;49.732;20.078;2023-04-20T10:48:06;97027.50;;;13.53;63.09
24302;BME280;12421;49.732;20.078;2023-04-20T10:58:20;97027.05;;;13.41;63.96
24302;BME280;12421;49.732;20.078;2023-04-20T11:08:23;97015.61;;;14.11;62.67
24302;BME280;12421;49.732;20.078;2023-04-20T11:18:26;97007.70;;;14.81;61.40
24302;BME280;12421;49.732;20.078;2023-04-20T11:28:29;97002.48;;;15.24;60.53
24302;BME280;12421;49.732;20.078;2023-04-20T11:38:36;96999.35;;;15.47;59.41
24302;BME280;12421;49.732;20.078;2023-04-20T11:48:39;97003.40;;;15.22;59.33
24302;BME280;12421;49.732;20.078;2023-04-20T11:58:43;97006.52;;;14.79;59.93
24302;BME280;12421;49.732;20.078;2023-04-20T12:08:46;97014.33;;;14.21;61.37
24302;BME280;12421;49.732;20.078;2023-04-20T12:19:21;97006.80;;;14.02;61.45
24302;BME280;12421;49.732;20.078;2023-04-20T12:29:56;96997.23;;;14.27;61.40
24302;BME280;12421;49.732;20.078;2023-04-20T12:39:59;96984.13;;;14.51;60.04
24302;BME280;12421;49.732;20.078;2023-04-20T12:50:03;96981.02;;;14.67;59.32
24302;BME280;12421;49.732;20.078;2023-04-20T13:00:10;96978.78;;;14.65;58.23
24302;BME280;12421;49.732;20.078;2023-04-20T13:10:17;96968.75;;;14.90;57.54
24302;BME280;12421;49.732;20.078;2023-04-20T13:20:20;96959.66;;;15.36;56.50
24302;BME280;12421;49.732;20.078;2023-04-20T13:30:23;96953.21;;;15.52;55.88
24302;BME280;12421;49.732;20.078;2023-04-20T13:40:26;96954.11;;;15.38;55.95
24302;BME280;12421;49.732;20.078;2023-04-20T13:50:30;96951.83;;;15.25;56.09
24302;BME280;12421;49.732;20.078;2023-04-20T14:00:33;96956.73;;;15.47;56.06
24302;BME280;12421;49.732;20.078;2023-04-20T14:10:36;96954.45;;;15.08;56.85
24302;BME280;12421;49.732;20.078;2023-04-20T14:20:41;96956.61;;;14.75;57.90
24302;BME280;12421;49.732;20.078;2023-04-20T14:30:44;96953.49;;;14.99;58.82
24302;BME280;12421;49.732;20.078;2023-04-20T14:41:20;96956.01;;;15.09;58.46
24302;BME280;12421;49.732;20.078;2023-04-20T14:51:23;96949.69;;;15.14;58.68
24302;BME280;12421;49.732;20.078;2023-04-20T15:01:26;96945.76;;;15.40;57.71
24302;BME280;12421;49.732;20.078;2023-04-20T15:11:30;96942.95;;;15.57;55.98
24302;BME280;12421;49.732;20.078;2023-04-20T15:21:33;96946.42;;;15.29;56.82
24302;BME280;12421;49.732;20.078;2023-04-20T15:31:36;96958.76;;;14.99;57.96
24302;BME280;12421;49.732;20.078;2023-04-20T15:41:39;96956.55;;;14.84;59.64
24302;BME280;12421;49.732;20.078;2023-04-20T15:51:42;96951.89;;;14.67;59.99
24302;BME280;12421;49.732;20.078;2023-04-20T16:01:46;96946.20;;;14.68;61.14
24302;BME280;12421;49.732;20.078;2023-04-20T16:11:49;96949.45;;;14.59;61.16
24302;BME280;12421;49.732;20.078;2023-04-20T16:21:52;96952.94;;;14.54;62.81
24302;BME280;12421;49.732;20.078;2023-04-20T16:31:55;96949.86;;;14.50;63.16
24302;BME280;12421;49.732;20.078;2023-04-20T16:41:59;96944.89;;;14.44;65.03
24302;BME280;12421;49.732;20.078;2023-04-20T16:52:02;96951.88;;;14.18;65.04
24302;BME280;12421;49.732;20.078;2023-04-20T17:02:06;96959.55;;;13.85;65.71
24302;BME280;12421;49.732;20.078;2023-04-20T17:12:42;96957.38;;;13.72;65.49
24302;BME280;12421;49.732;20.078;2023-04-20T17:23:18;96968.61;;;13.51;66.26
24302;BME280;12421;49.732;20.078;2023-04-20T17:33:21;96975.30;;;13.10;67.45
24302;BME280;12421;49.732;20.078;2023-04-20T17:43:24;96982.62;;;12.77;67.82
24302;BME280;12421;49.732;20.078;2023-04-20T17:53:27;96982.27;;;12.47;68.96
24302;BME280;12421;49.732;20.078;2023-04-20T18:03:30;96983.52;;;12.26;69.82
24302;BME280;12421;49.732;20.078;2023-04-20T18:13:34;96988.19;;;12.10;70.32
24302;BME280;12421;49.732;20.078;2023-04-20T18:23:37;96990.06;;;11.92;70.91
24302;BME280;12421;49.732;20.078;2023-04-20T18:33:41;96989.88;;;11.81;71.31
24302;BME280;12421;49.732;20.078;2023-04-20T18:43:45;96994.70;;;11.62;72.25
24302;BME280;12421;49.732;20.078;2023-04-20T18:53:48;96995.45;;;11.46;72.95
24302;BME280;12421;49.732;20.078;2023-04-20T19:03:52;97000.88;;;11.19;73.45
24302;BME280;12421;49.732;20.078;2023-04-20T19:13:55;97001.59;;;10.88;74.12
24302;BME280;12421;49.732;20.078;2023-04-20T19:23:59;97001.73;;;10.56;74.84
24302;BME280;12421;49.732;20.078;2023-04-20T19:34:03;97001.05;;;10.17;75.51
24302;BME280;12421;49.732;20.078;2023-04-20T19:44:06;97006.46;;;9.67;75.82
24302;BME280;12421;49.732;20.078;2023-04-20T19:54:44;97004.80;;;9.17;76.22
24302;BME280;12421;49.732;20.078;2023-04-20T20:04:47;97004.41;;;8.79;76.68
24302;BME280;12421;49.732;20.078;2023-04-20T20:14:52;97001.86;;;8.29;77.28
24302;BME280;12421;49.732;20.078;2023-04-20T20:24:55;96999.94;;;7.98;78.15
24302;BME280;12421;49.732;20.078;2023-04-20T20:34:59;96994.86;;;7.88;79.30
24302;BME280;12421;49.732;20.078;2023-04-20T20:45:04;96996.95;;;7.80;79.96
24302;BME280;12421;49.732;20.078;2023-04-20T20:55:09;96997.44;;;7.54;79.70
24302;BME280;12421;49.732;20.078;2023-04-20T21:05:12;96999.09;;;7.20;79.50
24302;BME280;12421;49.732;20.078;2023-04-20T21:15:16;97007.46;;;6.76;79.16
24302;BME280;12421;49.732;20.078;2023-04-20T21:25:19;97012.36;;;6.48;79.96
24302;BME280;12421;49.732;20.078;2023-04-20T21:35:23;97013.27;;;6.27;80.08
24302;BME280;12421;49.732;20.078;2023-04-20T21:45:26;97012.33;;;5.98;79.88
24302;BME280;12421;49.732;20.078;2023-04-20T21:55:32;97016.70;;;5.64;80.18
24302;BME280;12421;49.732;20.078;2023-04-20T22:05:35;97015.80;;;5.44;80.81
24302;BME280;12421;49.732;20.078;2023-04-20T22:15:38;97010.69;;;5.37;81.41
24302;BME280;12421;49.732;20.078;2023-04-20T22:25:42;97009.30;;;5.37;81.90
24302;BME280;12421;49.732;20.078;2023-04-20T22:35:45;97008.92;;;5.19;81.66
24302;BME280;12421;49.732;20.078;2023-04-20T22:45:52;97015.70;;;5.03;81.76
24302;BME280;12421;49.732;20.078;2023-04-20T22:56:07;97019.27;;;4.83;81.63
24302;BME280;12421;49.732;20.078;2023-04-20T23:06:10;97015.36;;;4.62;81.90
24302;BME280;12421;49.732;20.078;2023-04-20T23:16:14;97016.69;;;4.58;82.05
24302;BME280;12421;49.732;20.078;2023-04-20T23:26:18;97021.41;;;4.47;82.24
24302;BME280;12421;49.732;20.078;2023-04-20T23:36:21;97019.63;;;4.45;82.76
24302;BME280;12421;49.732;20.078;2023-04-20T23:46:25;97021.19;;;4.56;83.83
24302;BME280;12421;49.732;20.078;2023-04-20T23:56:28;97016.00;;;4.58;83.65
